Impacts METAR Board
IDs:

KMCO - Orlando Intl, FL, US

Updated at: 0800 UTC 23 Oct 2018
Potential Impact None Slight Moderate High
Time 22/20Z 22/21Z 22/22Z 22/23Z 23/00Z 23/01Z 23/02Z 23/03Z 23/04Z 23/05Z 23/06Z 23/07Z 23/08Z
Temp81 80 79 76 74 73 72 72 71 70 68 68 68
Dewpt60 61 61 61 62 62 61 62 62 62 62 62 62
Altim30.12 30.12 30.12 30.12 30.13 30.15 30.15 30.16 30.14 30.13 30.11 30.10 30.09
VIS10 10 10 10 10 10 10 10 10 10 10 10 10
CIG250 250 250 300 250 -- -- -- -- -- -- -- --
CoverBKNBKNBKNBKNBKNSCTSCTSCTSCTSCTSCTFEWSCT
FltCatVFRVFRVFRVFRVFRVFRVFRVFRVFRVFRVFRVFRVFR
WX--------------------------
WDir10070807070706050600103400
WSpd14 11 12 10 8 6 5 4 4 0 4 4 3
WGst-- -- -- -- -- -- -- -- -- -- -- -- --
Raw hourly METARs
KMCO 221953Z 10014KT 10SM SCT050 SCT060 BKN250 27/16 A3012 RMK AO2 SLP197 T02720156
KMCO 222053Z 07011KT 10SM FEW045 SCT060 BKN250 27/16 A3012 RMK AO2 SLP198 T02670161 55006
KMCO 222153Z 08012KT 10SM FEW040 FEW060 BKN250 26/16 A3012 RMK AO2 SLP198 T02610161
KMCO 222253Z 07010KT 10SM FEW050 SCT060 SCT250 BKN300 24/16 A3012 RMK AO2 SLP199 T02440161
KMCO 222353Z 07008KT 10SM SCT050 BKN250 23/17 A3013 RMK AO2 SLP202 T02330167 10283 20233 53004
KMCO 230053Z 07006KT 10SM FEW050 SCT250 23/17 A3015 RMK AO2 SLP207 T02280167
KMCO 230153Z 06005KT 10SM FEW050 FEW200 SCT250 22/16 A3015 RMK AO2 SLP209 T02220161
KMCO 230253Z 05004KT 10SM SCT043 SCT250 22/17 A3016 RMK AO2 SLP211 T02220167 51008
KMCO 230353Z 06004KT 10SM FEW040 SCT250 22/17 A3014 RMK AO2 SLP205 T02170167
KMCO 230453Z 00000KT 10SM FEW040 SCT250 21/17 A3013 RMK AO2 SLP201 T02110167 402890178
KMCO 230553Z 01004KT 10SM SCT037 SCT250 20/17 A3011 RMK AO2 SLP195 T02000167 10233 20200 58015
KMCO 230653Z 34004KT 10SM FEW037 20/17 A3010 RMK AO2 SLP191 T02000167
KMCO 230753Z VRB03KT 10SM FEW035 SCT250 20/17 A3009 RMK AO2 SLP186 T02000167



Page loaded:  08:12 UTC  |   01:12 AM Pacific  |   02:12 AM Mountain  |   03:12 AM Central  |   04:12 AM Eastern

 

ADVISORIES

FORECASTS

FORECASTS

OBSERVATIONS

USER TOOLS

ABOUT US